createdAt,value
2019-04-05T00:02:26.433Z,19.33
2019-04-05T00:04:56.500Z,13.93
2019-04-05T00:07:26.533Z,14.73
2019-04-05T00:09:56.592Z,13.47
2019-04-05T00:12:26.856Z,18.47
2019-04-05T00:14:56.920Z,12.87
2019-04-05T00:17:26.972Z,12.50
2019-04-05T00:19:57.256Z,14.40
2019-04-05T00:22:27.316Z,16.50
2019-04-05T00:24:57.347Z,14.23
2019-04-05T00:27:27.880Z,15.40
2019-04-05T00:29:57.913Z,13.37
2019-04-05T00:32:28.268Z,21.57
2019-04-05T00:34:58.552Z,13.60
2019-04-05T00:37:28.604Z,13.40
2019-04-05T00:39:58.912Z,13.50
2019-04-05T00:42:29.007Z,13.50
2019-04-05T00:44:59.324Z,13.70
2019-04-05T00:47:30.337Z,18.20
2019-04-05T00:50:00.624Z,12.53
2019-04-05T00:52:30.683Z,15.10
2019-04-05T00:55:00.972Z,18.90
2019-04-05T00:57:31.052Z,21.30
2019-04-05T01:00:01.364Z,16.97
2019-04-05T01:02:31.547Z,13.70
2019-04-05T01:05:01.756Z,17.07
2019-04-05T01:07:33.069Z,16.70
2019-04-05T01:10:03.363Z,17.50
2019-04-05T01:12:33.853Z,17.53
2019-04-05T01:15:04.548Z,19.10
2019-04-05T01:17:34.836Z,20.20
2019-04-05T01:20:06.045Z,18.87
2019-04-05T01:22:36.733Z,15.13
2019-04-05T01:25:07.344Z,16.33
2019-04-05T01:27:40.048Z,20.90
2019-04-05T01:30:12.453Z,15.27
2019-04-05T01:32:42.664Z,19.23
2019-04-05T01:35:13.052Z,18.73
2019-04-05T01:37:44.743Z,16.50
2019-04-05T01:40:15.100Z,14.03
2019-04-05T01:42:46.019Z,23.23
2019-04-05T01:45:16.270Z,17.37
2019-04-05T01:47:46.323Z,19.10
2019-04-05T01:50:16.483Z,16.00
2019-04-05T01:52:47.170Z,19.00
2019-04-05T01:55:17.457Z,18.40
2019-04-05T01:57:47.485Z,20.57
2019-04-05T02:00:17.889Z,20.90
2019-04-05T02:02:47.925Z,23.37
2019-04-05T02:05:19.639Z,19.37
2019-04-05T02:07:49.912Z,15.90
2019-04-05T02:10:20.104Z,21.47
2019-04-05T02:12:50.532Z,18.53
2019-04-05T02:15:26.292Z,19.20
2019-04-05T02:17:57.482Z,18.67
2019-04-05T02:20:27.785Z,19.00
2019-04-05T02:22:57.986Z,18.50
2019-04-05T02:25:28.535Z,23.73
2019-04-05T02:27:59.175Z,17.57
2019-04-05T02:30:29.617Z,19.13
2019-04-05T02:32:59.792Z,21.63
2019-04-05T02:35:30.174Z,18.43
2019-04-05T02:38:00.260Z,20.50
2019-04-05T02:40:31.388Z,21.57
2019-04-05T02:43:02.660Z,19.93
2019-04-05T02:45:36.004Z,17.87
2019-04-05T02:48:09.381Z,20.13
2019-04-05T02:50:43.452Z,17.93
2019-04-05T02:53:15.851Z,20.50
2019-04-05T02:55:46.606Z,19.67
2019-04-05T02:58:16.909Z,18.73
2019-04-05T03:00:47.203Z,16.53
2019-04-05T03:03:17.393Z,18.87
2019-04-05T03:05:47.809Z,23.47
2019-04-05T03:08:18.373Z,17.13
2019-04-05T03:11:06.584Z,19.40
2019-04-05T03:13:39.857Z,19.30
2019-04-05T03:16:18.650Z,23.20
2019-04-05T03:18:55.654Z,23.70
2019-04-05T03:21:28.904Z,21.30
2019-04-05T03:24:02.082Z,22.03
2019-04-05T03:26:35.905Z,19.20
2019-04-05T03:29:09.305Z,23.10
2019-04-05T03:31:40.001Z,22.27
2019-04-05T03:34:10.422Z,23.50
2019-04-05T03:36:40.707Z,23.00
2019-04-05T03:39:11.156Z,22.17
2019-04-05T03:41:41.413Z,25.33
2019-04-05T03:44:11.706Z,22.37
2019-04-05T03:46:55.666Z,19.30
2019-04-05T03:49:14.161Z,21.87
2019-04-05T03:51:45.909Z,26.57
2019-04-05T03:54:16.087Z,21.27
2019-04-05T03:56:46.437Z,21.10
2019-04-05T03:59:16.533Z,23.40
2019-04-05T04:01:47.529Z,21.83
2019-04-05T04:04:17.631Z,23.50
2019-04-05T04:06:47.860Z,21.50
2019-04-05T04:09:18.264Z,30.20
2019-04-05T04:11:48.725Z,22.47
2019-04-05T04:14:19.437Z,24.30
2019-04-05T04:16:49.804Z,22.90
2019-04-05T04:19:19.836Z,26.27
2019-04-05T04:22:03.709Z,33.23
2019-04-05T04:24:33.973Z,27.57
2019-04-05T04:27:04.097Z,25.90
2019-04-05T04:29:34.417Z,29.27
2019-04-05T04:32:04.787Z,27.57
2019-04-05T04:34:35.061Z,28.00
2019-04-05T04:37:05.291Z,27.10
2019-04-05T04:39:35.396Z,26.27
2019-04-05T04:42:05.912Z,26.33
2019-04-05T04:44:36.108Z,24.37
2019-04-05T04:47:07.906Z,29.90
2019-04-05T04:49:38.089Z,28.63
2019-04-05T04:52:08.708Z,28.67
2019-04-05T04:54:38.893Z,27.23
2019-04-05T04:57:09.605Z,28.80
2019-04-05T04:59:39.713Z,27.57
2019-04-05T05:02:10.497Z,21.57
2019-04-05T05:04:40.965Z,20.60
2019-04-05T05:07:11.180Z,23.70
2019-04-05T05:09:41.561Z,27.57
2019-04-05T05:12:11.929Z,25.17
2019-04-05T05:14:42.205Z,27.67
2019-04-05T05:17:12.486Z,30.10
2019-04-05T05:19:42.704Z,26.43
2019-04-05T05:22:13.672Z,29.67
2019-04-05T05:24:43.796Z,29.00
2019-04-05T05:27:14.344Z,28.40
2019-04-05T05:29:44.483Z,33.53
2019-04-05T05:32:14.660Z,25.03
2019-04-05T05:34:45.197Z,26.90
2019-04-05T05:37:15.469Z,33.83
2019-04-05T05:39:45.777Z,28.17
2019-04-05T05:42:15.963Z,24.83
2019-04-05T05:44:46.273Z,33.13
2019-04-05T05:47:16.781Z,29.20
2019-04-05T05:49:47.301Z,26.80
2019-04-05T05:52:17.648Z,27.80
2019-04-05T05:54:47.685Z,27.10
2019-04-05T05:57:17.744Z,36.40
2019-04-05T05:59:48.085Z,33.50
2019-04-05T06:02:18.468Z,30.87
2019-04-05T06:04:48.522Z,31.70
2019-04-05T06:07:20.204Z,28.00
2019-04-05T06:09:50.364Z,32.07
2019-04-05T06:12:20.680Z,30.33
2019-04-05T06:14:50.969Z,31.10
2019-04-05T06:17:21.097Z,27.80
2019-04-05T06:19:51.156Z,30.13
2019-04-05T06:22:21.461Z,26.37
2019-04-05T06:24:51.733Z,24.50
2019-04-05T06:27:21.780Z,29.43
2019-04-05T06:29:52.046Z,31.43
2019-04-05T06:32:22.110Z,28.40
2019-04-05T06:34:52.140Z,34.70
2019-04-05T06:37:22.232Z,24.97
2019-04-05T06:39:52.497Z,27.13
2019-04-05T06:42:22.560Z,30.57
2019-04-05T06:44:52.605Z,24.80
2019-04-05T06:47:22.889Z,28.40
2019-04-05T06:49:53.033Z,22.20
2019-04-05T06:52:21.887Z,26.50
2019-04-05T06:54:50.757Z,27.90
2019-04-05T06:57:19.663Z,25.33
2019-04-05T06:59:48.489Z,24.47
2019-04-05T07:02:18.932Z,22.40
2019-04-05T07:04:49.205Z,21.90
2019-04-05T07:07:19.272Z,23.60
2019-04-05T07:09:49.468Z,19.40
2019-04-05T07:12:20.800Z,23.03
2019-04-05T07:14:51.440Z,20.00
2019-04-05T07:17:21.724Z,24.57
2019-04-05T07:19:51.760Z,26.77
2019-04-05T07:22:34.169Z,24.30
2019-04-05T07:24:53.551Z,22.50
2019-04-05T07:27:23.854Z,25.70
2019-04-05T07:29:53.892Z,21.97
2019-04-05T07:32:23.958Z,26.90
2019-04-05T07:34:54.752Z,22.07
2019-04-05T07:37:24.800Z,18.67
2019-04-05T07:39:55.093Z,16.17
2019-04-05T07:42:25.135Z,20.47
2019-04-05T07:44:55.391Z,20.80
2019-04-05T07:47:25.724Z,24.60
2019-04-05T07:49:55.779Z,21.23
2019-04-05T07:52:27.214Z,17.40
2019-04-05T07:54:57.722Z,23.80
2019-04-05T07:57:28.275Z,23.27
2019-04-05T07:59:58.312Z,21.07
2019-04-05T08:02:28.370Z,26.73
2019-04-05T08:04:58.652Z,25.37
2019-04-05T08:07:32.020Z,23.83
2019-04-05T08:10:03.159Z,27.33
2019-04-05T08:12:33.685Z,19.60
2019-04-05T08:15:04.285Z,22.87
2019-04-05T08:17:35.316Z,24.47
2019-04-05T08:20:05.588Z,26.43
2019-04-05T08:22:36.866Z,26.80
2019-04-05T08:25:07.284Z,26.67
2019-04-05T08:27:37.413Z,29.77
2019-04-05T08:30:07.808Z,32.60
2019-04-05T08:32:38.090Z,42.60
2019-04-05T08:35:08.424Z,39.03
2019-04-05T08:37:38.692Z,33.90
2019-04-05T08:40:09.972Z,37.70
2019-04-05T08:42:40.257Z,35.63
2019-04-05T08:45:10.441Z,37.40
2019-04-05T08:47:41.478Z,39.00
2019-04-05T08:50:11.657Z,37.37
2019-04-05T08:52:41.932Z,42.83
2019-04-05T08:55:12.085Z,44.37
2019-04-05T08:57:42.169Z,41.80
2019-04-05T09:00:12.604Z,43.73
2019-04-05T09:02:42.904Z,45.10
2019-04-05T09:05:13.174Z,43.70
2019-04-05T09:07:43.197Z,47.77
2019-04-05T09:10:13.631Z,48.97
2019-04-05T09:12:43.676Z,42.97
2019-04-05T09:15:13.796Z,49.63
2019-04-05T09:17:43.830Z,49.10
2019-04-05T09:20:14.471Z,55.37
2019-04-05T09:22:44.512Z,52.10
2019-04-05T09:25:14.880Z,48.93
2019-04-05T09:27:44.935Z,55.03
2019-04-05T09:30:15.227Z,61.27
2019-04-05T09:32:45.313Z,51.53
2019-04-05T09:35:15.528Z,55.60
2019-04-05T09:37:45.805Z,52.97
2019-04-05T09:40:16.047Z,59.10
2019-04-05T09:42:46.401Z,57.90
2019-04-05T09:45:16.528Z,57.17
2019-04-05T09:47:46.676Z,60.10
2019-04-05T09:50:17.949Z,53.40
2019-04-05T09:52:47.980Z,52.73
2019-04-05T09:55:18.044Z,51.30
2019-04-05T09:57:48.336Z,56.83
2019-04-05T10:00:22.389Z,48.07
2019-04-05T10:02:52.656Z,70.50
2019-04-05T10:05:23.675Z,49.57
2019-04-05T10:07:55.605Z,56.00
2019-04-05T10:10:26.772Z,50.00
2019-04-05T10:12:56.833Z,54.40
2019-04-05T10:15:26.891Z,51.27
2019-04-05T10:17:57.404Z,51.37
2019-04-05T10:20:27.689Z,47.60
2019-04-05T10:22:58.928Z,50.23
2019-04-05T10:25:29.000Z,48.13
2019-04-05T10:27:59.740Z,50.57
2019-04-05T10:30:29.791Z,44.57
2019-04-05T10:32:59.835Z,43.27
2019-04-05T10:35:29.885Z,46.07
2019-04-05T10:37:59.932Z,40.87
2019-04-05T10:40:30.212Z,43.77
2019-04-05T10:43:00.481Z,39.60
2019-04-05T10:45:31.069Z,43.17
2019-04-05T10:48:01.373Z,44.03
2019-04-05T10:50:31.482Z,48.60
2019-04-05T10:53:01.797Z,40.33
2019-04-05T10:55:31.831Z,39.37
2019-04-05T10:58:01.889Z,37.60
2019-04-05T11:00:32.084Z,38.43
2019-04-05T11:03:02.245Z,43.63
2019-04-05T11:05:33.304Z,40.87
2019-04-05T11:08:03.448Z,39.47
2019-04-05T11:10:33.741Z,39.50
2019-04-05T11:13:03.808Z,36.60
2019-04-05T11:15:34.081Z,32.83
2019-04-05T11:18:04.805Z,38.40
2019-04-05T11:20:34.944Z,41.57
2019-04-05T11:23:04.983Z,34.30
2019-04-05T11:25:35.201Z,35.00
2019-04-05T11:28:05.412Z,33.93
2019-04-05T11:30:44.284Z,38.60
2019-04-05T11:33:14.463Z,33.53
2019-04-05T11:35:44.549Z,38.70
2019-04-05T11:38:15.297Z,40.30
2019-04-05T11:40:46.968Z,39.60
2019-04-05T11:43:17.548Z,31.20
2019-04-05T11:45:50.563Z,33.20
2019-04-05T11:48:20.256Z,37.73
2019-04-05T11:50:50.568Z,35.43
2019-04-05T11:53:22.163Z,37.00
2019-04-05T11:55:52.304Z,34.40
2019-04-05T11:58:22.644Z,33.77
2019-04-05T12:00:55.808Z,41.10
2019-04-05T12:03:26.580Z,37.33
2019-04-05T12:05:56.622Z,36.87
2019-04-05T12:08:26.680Z,43.30
2019-04-05T12:10:56.732Z,38.93
2019-04-05T12:13:26.797Z,37.13
2019-04-05T12:15:58.266Z,32.97
2019-04-05T12:18:28.972Z,37.70
2019-04-05T12:21:00.554Z,40.43
2019-04-05T12:23:33.446Z,36.33
2019-04-05T12:26:04.712Z,40.60
2019-04-05T12:28:34.692Z,38.77
2019-04-05T12:31:05.052Z,39.30
2019-04-05T12:33:35.097Z,45.70
2019-04-05T12:36:05.522Z,41.37
2019-04-05T12:38:35.785Z,36.00
2019-04-05T12:41:05.916Z,41.40
2019-04-05T12:43:36.029Z,37.00
2019-04-05T12:46:06.245Z,33.03
2019-04-05T12:48:36.521Z,33.00
2019-04-05T12:51:06.599Z,32.70
2019-04-05T12:53:36.919Z,38.33
2019-04-05T12:56:07.304Z,35.10
2019-04-05T12:58:38.937Z,32.97
2019-04-05T13:01:09.063Z,35.40
2019-04-05T13:03:39.340Z,35.77
2019-04-05T13:06:09.874Z,29.20
2019-04-05T13:08:39.924Z,35.03
2019-04-05T13:11:10.226Z,32.93
2019-04-05T13:13:40.418Z,40.00
2019-04-05T13:16:11.787Z,32.33
2019-04-05T13:18:42.390Z,36.67
2019-04-05T13:21:15.012Z,35.93
2019-04-05T13:23:44.419Z,41.90
2019-04-05T13:26:14.467Z,40.73
2019-04-05T13:28:46.491Z,33.83
2019-04-05T13:31:18.850Z,36.90
2019-04-05T13:33:48.772Z,32.20
2019-04-05T13:36:19.107Z,33.00
2019-04-05T13:38:54.998Z,34.20
2019-04-05T13:41:21.677Z,37.07
2019-04-05T13:43:51.760Z,32.17
2019-04-05T13:46:25.851Z,34.70
2019-04-05T13:48:53.992Z,33.50
2019-04-05T13:51:28.137Z,34.13
2019-04-05T13:53:55.355Z,32.57
2019-04-05T13:56:25.659Z,30.10
2019-04-05T13:58:55.706Z,34.63
2019-04-05T14:01:26.044Z,29.47
2019-04-05T14:03:56.348Z,39.13
2019-04-05T14:06:26.629Z,32.90
2019-04-05T14:08:57.880Z,34.00
2019-04-05T14:11:28.238Z,30.97
2019-04-05T14:13:58.529Z,29.00
2019-04-05T14:16:28.807Z,37.70
2019-04-05T14:18:59.112Z,32.73
2019-04-05T14:21:39.699Z,31.67
2019-04-05T14:24:04.123Z,35.77
2019-04-05T14:26:33.212Z,36.80
2019-04-05T14:29:04.149Z,33.27
2019-04-05T14:31:34.344Z,27.87
2019-04-05T14:34:04.720Z,35.80
2019-04-05T14:36:35.164Z,31.80
2019-04-05T14:39:08.797Z,31.90
2019-04-05T14:41:39.201Z,32.07
2019-04-05T14:44:09.239Z,33.00
2019-04-05T14:46:39.307Z,27.57
2019-04-05T14:49:10.049Z,29.00
2019-04-05T14:51:52.230Z,33.73
2019-04-05T14:54:12.146Z,32.03
2019-04-05T14:56:42.674Z,29.67
2019-04-05T14:59:12.800Z,30.90
2019-04-05T15:01:44.659Z,31.67
2019-04-05T15:04:15.321Z,32.73
2019-04-05T15:06:45.620Z,26.00
2019-04-05T15:09:16.145Z,33.30
2019-04-05T15:11:46.436Z,30.17
2019-04-05T15:14:16.474Z,25.63
2019-04-05T15:16:47.266Z,31.40
2019-04-05T15:19:17.322Z,31.90
2019-04-05T15:21:47.608Z,28.90
2019-04-05T15:24:18.137Z,31.67
2019-04-05T15:26:49.427Z,28.13
2019-04-05T15:29:25.833Z,28.40
2019-04-05T15:31:53.443Z,32.27
2019-04-05T15:34:27.978Z,31.70
2019-04-05T15:36:56.034Z,31.20
2019-04-05T15:39:26.346Z,33.90
2019-04-05T15:41:56.413Z,31.50
2019-04-05T15:44:26.731Z,32.20
2019-04-05T15:46:56.824Z,30.83
2019-04-05T15:49:26.948Z,34.03
2019-04-05T15:51:58.885Z,28.60
2019-04-05T15:54:33.203Z,31.13
2019-04-05T15:57:03.802Z,27.27
2019-04-05T15:59:34.114Z,32.03
2019-04-05T16:02:04.425Z,30.73
2019-04-05T16:04:34.523Z,27.80
2019-04-05T16:07:04.631Z,32.47
2019-04-05T16:09:34.966Z,34.57
2019-04-05T16:12:05.608Z,35.93
2019-04-05T16:14:36.301Z,39.80
2019-04-05T16:17:06.505Z,37.00
2019-04-05T16:19:36.669Z,45.53
2019-04-05T16:22:06.935Z,37.57
2019-04-05T16:24:37.215Z,45.37
2019-04-05T16:27:07.318Z,40.90
2019-04-05T16:29:37.376Z,44.20
2019-04-05T16:32:07.704Z,47.50
2019-04-05T16:34:37.772Z,46.47
2019-04-05T16:37:09.035Z,43.20
2019-04-05T16:39:40.100Z,37.03
2019-04-05T16:42:10.427Z,41.33
2019-04-05T16:44:41.030Z,38.47
2019-04-05T16:47:11.066Z,45.93
2019-04-05T16:49:41.196Z,48.30
2019-04-05T16:52:11.776Z,48.80
2019-04-05T16:54:41.845Z,47.40
2019-04-05T16:57:12.117Z,41.30
2019-04-05T16:59:42.170Z,52.40
2019-04-05T17:02:12.456Z,44.20
2019-04-05T17:04:43.211Z,50.20
2019-04-05T17:07:13.742Z,47.30
2019-04-05T17:09:43.807Z,47.53
2019-04-05T17:12:15.068Z,50.80
2019-04-05T17:14:45.365Z,45.30
2019-04-05T17:17:15.637Z,44.70
2019-04-05T17:19:45.690Z,44.93
2019-04-05T17:22:15.825Z,49.70
2019-04-05T17:24:46.191Z,55.50
2019-04-05T17:27:16.284Z,47.33
2019-04-05T17:29:46.324Z,51.23
2019-04-05T17:32:16.448Z,50.73
2019-04-05T17:34:46.723Z,46.10
2019-04-05T17:37:17.292Z,51.83
2019-04-05T17:39:47.353Z,62.13
2019-04-05T17:42:17.503Z,55.90
2019-04-05T17:44:47.593Z,48.47
2019-04-05T17:47:19.034Z,45.17
2019-04-05T17:49:49.472Z,45.93
2019-04-05T17:52:21.126Z,50.10
2019-04-05T17:54:51.220Z,54.27
2019-04-05T17:57:21.528Z,49.47
2019-04-05T17:59:52.482Z,53.43
2019-04-05T18:02:22.528Z,51.77
2019-04-05T18:04:52.804Z,52.73
2019-04-05T18:07:23.231Z,54.67
2019-04-05T18:09:53.817Z,49.80
2019-04-05T18:12:24.108Z,48.50
2019-04-05T18:14:54.148Z,49.00
2019-04-05T18:17:24.512Z,48.57
2019-04-05T18:19:54.660Z,59.60
2019-04-05T18:22:25.256Z,57.80
2019-04-05T18:24:55.681Z,50.13
2019-04-05T18:27:26.155Z,53.87
2019-04-05T18:29:56.876Z,56.33
2019-04-05T18:32:27.192Z,55.80
2019-04-05T18:34:57.260Z,51.50
2019-04-05T18:37:27.447Z,48.03
2019-04-05T18:39:57.832Z,51.43
2019-04-05T18:42:29.356Z,54.63
2019-04-05T18:45:00.916Z,46.83
2019-04-05T18:47:31.252Z,50.40
2019-04-05T18:50:03.078Z,58.93
2019-04-05T18:52:33.455Z,52.27
2019-04-05T18:55:03.713Z,50.23
2019-04-05T18:57:34.246Z,53.73
2019-04-05T19:00:04.678Z,49.13
2019-04-05T19:02:35.198Z,53.67
2019-04-05T19:05:06.341Z,51.63
2019-04-05T19:07:36.837Z,49.43
2019-04-05T19:10:07.060Z,51.10
2019-04-05T19:12:37.460Z,52.53
2019-04-05T19:15:07.656Z,53.13
2019-04-05T19:17:38.805Z,57.63
2019-04-05T19:20:09.153Z,59.33
2019-04-05T19:22:39.668Z,56.10
2019-04-05T19:25:09.876Z,53.43
2019-04-05T19:27:40.019Z,61.17
2019-04-05T19:50:26.825Z,55.63
2019-04-05T19:52:57.112Z,52.27
2019-04-05T19:55:27.481Z,54.77
2019-04-05T19:57:57.711Z,53.23
2019-04-05T20:00:28.187Z,81.87
2019-04-05T20:02:58.516Z,53.80
2019-04-05T20:05:28.857Z,53.40
2019-04-05T20:07:59.156Z,55.67
2019-04-05T20:10:31.057Z,56.93
2019-04-05T20:13:01.227Z,54.90
2019-04-05T20:15:31.681Z,53.13
2019-04-05T20:18:02.094Z,55.37
2019-04-05T20:20:32.684Z,62.10
2019-04-05T20:23:03.085Z,61.40
2019-04-05T20:25:33.144Z,53.63
2019-04-05T20:28:03.375Z,52.83
2019-04-05T20:30:33.756Z,58.43
2019-04-05T20:33:04.079Z,65.33
2019-04-05T20:35:34.443Z,55.57
2019-04-05T20:38:06.361Z,65.43
2019-04-05T20:40:37.845Z,61.53
2019-04-05T20:43:08.620Z,52.70
2019-04-05T20:45:39.055Z,52.90
2019-04-05T20:48:09.616Z,59.93
2019-04-05T20:50:41.060Z,59.80
2019-04-05T20:53:11.876Z,52.57
2019-04-05T20:55:42.181Z,61.70
2019-04-05T20:58:12.388Z,60.80
2019-04-05T21:00:42.806Z,54.50
2019-04-05T21:03:13.408Z,53.03
2019-04-05T21:05:44.414Z,54.80
2019-04-05T21:08:14.804Z,53.10
2019-04-05T21:10:45.268Z,59.83
2019-04-05T21:13:16.143Z,65.53
2019-04-05T21:15:46.574Z,59.27
2019-04-05T21:18:16.992Z,60.43
2019-04-05T21:20:47.482Z,60.70
2019-04-05T21:23:17.530Z,61.13
2019-04-05T21:25:48.080Z,51.00
2019-04-05T21:28:18.458Z,52.87
2019-04-05T21:30:49.060Z,51.70
2019-04-05T21:33:19.266Z,54.53
2019-04-05T21:35:49.880Z,54.00
2019-04-05T21:38:20.229Z,55.60
2019-04-05T21:40:50.708Z,57.60
2019-04-05T21:43:21.234Z,53.60
2019-04-05T21:45:51.660Z,61.97
2019-04-05T21:48:22.099Z,54.27
2019-04-05T21:50:52.412Z,61.03
2019-04-05T21:53:22.577Z,63.73
2019-04-05T21:55:53.429Z,60.27
2019-04-05T21:58:25.875Z,61.70
2019-04-05T22:01:01.848Z,69.97
2019-04-05T22:03:33.864Z,55.77
2019-04-05T22:06:04.508Z,60.27
2019-04-05T22:08:34.590Z,57.23
2019-04-05T22:11:04.803Z,59.33
2019-04-05T22:13:35.174Z,54.30
2019-04-05T22:16:05.216Z,66.27
2019-04-05T22:18:36.395Z,57.07
2019-04-05T22:21:06.734Z,55.63
2019-04-05T22:23:36.857Z,57.70
2019-04-05T22:26:07.155Z,57.93
2019-04-05T22:28:38.051Z,57.93
2019-04-05T22:31:08.444Z,58.90
2019-04-05T22:33:38.594Z,53.87
2019-04-05T22:36:08.936Z,52.63
2019-04-05T22:38:39.271Z,59.80
2019-04-05T22:41:09.698Z,57.57
2019-04-05T22:43:39.826Z,54.60
2019-04-05T22:46:09.996Z,55.27
2019-04-05T22:48:40.368Z,60.30
2019-04-05T22:51:10.532Z,57.50
2019-04-05T22:53:40.950Z,51.37
2019-04-05T22:56:12.353Z,59.93
2019-04-05T22:58:42.488Z,50.13
2019-04-05T23:01:12.785Z,60.63
2019-04-05T23:03:43.073Z,50.80
2019-04-05T23:06:13.153Z,56.90
2019-04-05T23:08:43.535Z,51.70
2019-04-05T23:11:13.871Z,54.97
2019-04-05T23:13:43.979Z,52.77
2019-04-05T23:16:14.054Z,64.37
2019-04-05T23:18:44.092Z,52.83
2019-04-05T23:21:14.168Z,59.73
2019-04-05T23:23:44.514Z,54.80
2019-04-05T23:26:14.652Z,57.37
2019-04-05T23:28:44.908Z,53.27
2019-04-05T23:31:15.343Z,61.33
2019-04-05T23:33:45.639Z,57.07
2019-04-05T23:36:15.753Z,58.97
2019-04-05T23:38:45.783Z,59.07
2019-04-05T23:41:16.348Z,58.40
2019-04-05T23:43:46.612Z,61.63
2019-04-05T23:46:16.675Z,60.60
2019-04-05T23:48:46.713Z,58.77
2019-04-05T23:51:16.779Z,64.63
2019-04-05T23:53:47.102Z,72.00
2019-04-05T23:56:17.398Z,61.03
2019-04-05T23:58:47.519Z,56.20
